Weather at Eulogio Sánchez Airport

Public forecast

Using degrees Celsius for public forecast. Weather courtesy of forecast.io.

Current aviation weather report (METAR) for Eulogio Sánchez Airport

Report is more than 6 hours old.

Retrieved 2020/09/19 21:00 UTC (13 hours ago):

SCTB 192100Z 24007KT CAVOK 26/04 Q1015

Closest aviation forecast (TAF) to Eulogio Sánchez Airport

Closest forecast is Comodoro Arturo Merino Benítez International Airport, 12.6 nm (23.3 km) WNW. Retrieved 2020/09/20 06:00 UTC (4 hours ago):

TAF SCEL 200400Z 2006/2106 15004KT 8000 NSC TX25/2019Z TN06/2011Z TEMPO 2008/2014 5000 BR BECMG 2015/2017 20012KT CAVOK BECMG 2102/2104 16005KT